Baton Rouge Metropolitan, Ryan Field
KBTR : now visible

Airfield :











YOU CAN JOIN US ON...

 
LOGIN :

Register | Disclaimer

   EN    FR    IT 

 









Legend :    VFR   Marginal VFR   IFR   Intensive IFR   Very Intensive IFR
Visi :
Ceiling :
>= 8 km
>= 3000ft
5 to 8 km
1000 to 3000 ft
1500m to 5 km
500 to 1000 ft
800 to 1500m
200 to 500 ft
< 800m
< 200 ft
Symbols :   Thunderstorms  Fog  Heavy snow  Heavy precipitations  Wind > 20 kt






- Airport Elevation : 70 ft
- IATA code : BTR


KBTR - Baton Rouge Metropolitan, Ryan Field

CURRENT METAR :
  • 250753Z AUTO 00000KT 7SM CLR 23/22 A2986 RMK AO2 SLP109 T02280217

EXPIRED METARs :
  • 250653Z AUTO 10004KT 10SM CLR 23/22 A2985 RMK AO2 SLP106 T02330222
  • 250553Z AUTO 11003KT 10SM FEW022 24/23 A2987 RMK AO2 SLP114 T02390228 10283 20239 403220194 55006

TAF KBTR
Valid from the 25 at 06:00 until the 26 at 06:00 UTC


250520Z 2506/2606 10004KT P6SM FEW250
FM251500 12008KT P6SM VCSH FEW030 SCT060
FM251800 12008KT P6SM VCTS SCT030CB BKN045
FM260000 12008KT P6SM FEW035 SCT100
KZHU FIR / North America



MET'MAP, your aeronautical weather chart ! - Copyright ORBIFLY December 2007 - Disclaimer

ORBIFLY MET'MAP TEAM :

Programming & Development : Alexandra Zaïnal
Concept & original design : Baudouin d'Aumeries
Assistance for programming : Marc-Olivier Méhu
Technical & hardware support : Manuel Goepfert

Contact : metmap@orbifly.com




SOURCES & CREDITS :

   NOAA       Earth
Advisory